GQPZ

Tazadit Airport

Zouérate, Mauritania
METAR GQPZ 221800Z 04017KT 4000 BLSA BKN033 23/15 Q1019
Observed Flight Rules
Oct-22 @ 18:00 UTC (11 hours ago) Instrument Flight Rules
Wind Visibility Clouds Conditions
40° at 17 knots 4,007 meters
  • Broken at 3,300' AGL
  • Blowing
  • Sand
Temperatures Readings
Current 23°C / 73°F
Dewpoint 15°C / 59°F
Humidity 61%
Altimeter 30.09" Hg
Pressure 1019 hPa
Elevation 344
METAR GQPZ 221800Z 04017KT 4000 BLSA BKN033 23/15 Q1019
Observed Flight Rules
Oct-22 @ 18:00 UTC
(11 hours ago)
IFR
Wind Visibility
40° at 17 knots 4,007 meters
Clouds
  • Broken at 3,300' AGL
Conditions
  • Blowing
  • Sand
Temperature Dewpoint
23°C / 73°F 15°C / 59°F
Humidity Altimeter Pressure
61% 30.09" Hg 1019 hPa